sensor_id;sensor_type;location;lat;lon;timestamp;temperature;humidity
64987;DHT22;67903;52.108;9.358;2023-05-07T00:01:07;11.30;77.90
64987;DHT22;67903;52.108;9.358;2023-05-07T00:03:54;11.20;77.80
64987;DHT22;67903;52.108;9.358;2023-05-07T00:06:42;11.20;77.90
64987;DHT22;67903;52.108;9.358;2023-05-07T00:09:29;11.20;77.80
64987;DHT22;67903;52.108;9.358;2023-05-07T00:12:16;11.20;78.00
64987;DHT22;67903;52.108;9.358;2023-05-07T00:15:04;11.10;78.30
64987;DHT22;67903;52.108;9.358;2023-05-07T00:17:51;11.10;77.90
64987;DHT22;67903;52.108;9.358;2023-05-07T00:20:38;11.10;78.10
64987;DHT22;67903;52.108;9.358;2023-05-07T00:23:25;11.20;77.80
64987;DHT22;67903;52.108;9.358;2023-05-07T00:26:12;11.20;77.80
64987;DHT22;67903;52.108;9.358;2023-05-07T00:29:01;11.10;77.90
64987;DHT22;67903;52.108;9.358;2023-05-07T00:31:49;11.10;77.90
64987;DHT22;67903;52.108;9.358;2023-05-07T00:34:37;11.10;78.10
64987;DHT22;67903;52.108;9.358;2023-05-07T00:37:24;11.00;78.20
64987;DHT22;67903;52.108;9.358;2023-05-07T00:40:11;11.00;78.40
64987;DHT22;67903;52.108;9.358;2023-05-07T00:42:58;11.00;78.30
64987;DHT22;67903;52.108;9.358;2023-05-07T00:45:46;10.90;78.70
64987;DHT22;67903;52.108;9.358;2023-05-07T00:48:34;10.90;78.40
64987;DHT22;67903;52.108;9.358;2023-05-07T00:51:21;10.90;78.50
64987;DHT22;67903;52.108;9.358;2023-05-07T00:54:08;10.90;78.40
64987;DHT22;67903;52.108;9.358;2023-05-07T00:56:56;10.90;78.60
64987;DHT22;67903;52.108;9.358;2023-05-07T00:59:43;10.90;78.80
64987;DHT22;67903;52.108;9.358;2023-05-07T01:02:30;10.90;78.70
64987;DHT22;67903;52.108;9.358;2023-05-07T01:05:19;10.80;78.70
64987;DHT22;67903;52.108;9.358;2023-05-07T01:08:07;10.80;78.60
64987;DHT22;67903;52.108;9.358;2023-05-07T01:10:56;10.80;78.80
64987;DHT22;67903;52.108;9.358;2023-05-07T01:13:44;10.70;79.10
64987;DHT22;67903;52.108;9.358;2023-05-07T01:16:31;10.70;79.10
64987;DHT22;67903;52.108;9.358;2023-05-07T01:19:20;10.80;78.80
64987;DHT22;67903;52.108;9.358;2023-05-07T01:22:10;10.80;78.80
64987;DHT22;67903;52.108;9.358;2023-05-07T01:25:07;10.80;78.90
64987;DHT22;67903;52.108;9.358;2023-05-07T01:27:58;10.80;79.00
64987;DHT22;67903;52.108;9.358;2023-05-07T01:30:55;10.80;78.80
64987;DHT22;67903;52.108;9.358;2023-05-07T01:33:44;10.80;79.00
64987;DHT22;67903;52.108;9.358;2023-05-07T01:36:32;10.70;79.10
64987;DHT22;67903;52.108;9.358;2023-05-07T01:39:20;10.70;79.10
64987;DHT22;67903;52.108;9.358;2023-05-07T01:42:07;10.60;79.10
64987;DHT22;67903;52.108;9.358;2023-05-07T01:44:54;10.60;79.30
64987;DHT22;67903;52.108;9.358;2023-05-07T01:47:42;10.60;79.30
64987;DHT22;67903;52.108;9.358;2023-05-07T01:50:30;10.60;79.50
64987;DHT22;67903;52.108;9.358;2023-05-07T01:53:18;10.60;79.60
64987;DHT22;67903;52.108;9.358;2023-05-07T01:56:06;10.60;79.40
64987;DHT22;67903;52.108;9.358;2023-05-07T01:58:55;10.60;79.40
64987;DHT22;67903;52.108;9.358;2023-05-07T02:01:42;10.60;79.60
64987;DHT22;67903;52.108;9.358;2023-05-07T02:04:30;10.60;79.60
64987;DHT22;67903;52.108;9.358;2023-05-07T02:07:17;10.60;79.70
64987;DHT22;67903;52.108;9.358;2023-05-07T02:10:05;10.60;79.70
64987;DHT22;67903;52.108;9.358;2023-05-07T02:12:53;10.60;79.50
64987;DHT22;67903;52.108;9.358;2023-05-07T02:15:40;10.60;79.60
64987;DHT22;67903;52.108;9.358;2023-05-07T02:18:27;10.60;79.50
64987;DHT22;67903;52.108;9.358;2023-05-07T02:21:14;10.60;79.60
64987;DHT22;67903;52.108;9.358;2023-05-07T02:24:02;10.60;79.60
64987;DHT22;67903;52.108;9.358;2023-05-07T02:26:49;10.60;79.60
64987;DHT22;67903;52.108;9.358;2023-05-07T02:29:36;10.60;79.60
64987;DHT22;67903;52.108;9.358;2023-05-07T02:32:23;10.60;79.70
64987;DHT22;67903;52.108;9.358;2023-05-07T02:35:10;10.60;79.70
64987;DHT22;67903;52.108;9.358;2023-05-07T02:37:57;10.60;79.60
64987;DHT22;67903;52.108;9.358;2023-05-07T02:40:45;10.50;79.80
64987;DHT22;67903;52.108;9.358;2023-05-07T02:43:32;10.50;79.90
64987;DHT22;67903;52.108;9.358;2023-05-07T02:46:19;10.50;79.80
64987;DHT22;67903;52.108;9.358;2023-05-07T02:49:12;10.50;80.10
64987;DHT22;67903;52.108;9.358;2023-05-07T02:51:59;10.50;80.00
64987;DHT22;67903;52.108;9.358;2023-05-07T02:54:46;10.50;79.90
64987;DHT22;67903;52.108;9.358;2023-05-07T02:57:33;10.50;80.00
64987;DHT22;67903;52.108;9.358;2023-05-07T03:00:21;10.50;80.10
64987;DHT22;67903;52.108;9.358;2023-05-07T03:03:17;10.60;80.00
64987;DHT22;67903;52.108;9.358;2023-05-07T03:06:05;10.50;79.90
64987;DHT22;67903;52.108;9.358;2023-05-07T03:08:52;10.50;80.30
64987;DHT22;67903;52.108;9.358;2023-05-07T03:11:39;10.40;80.30
64987;DHT22;67903;52.108;9.358;2023-05-07T03:14:27;10.40;80.30
64987;DHT22;67903;52.108;9.358;2023-05-07T03:17:14;10.50;80.30
64987;DHT22;67903;52.108;9.358;2023-05-07T03:20:03;10.50;80.30
64987;DHT22;67903;52.108;9.358;2023-05-07T03:22:51;10.40;80.40
64987;DHT22;67903;52.108;9.358;2023-05-07T03:25:38;10.40;80.40
64987;DHT22;67903;52.108;9.358;2023-05-07T03:28:25;10.40;80.50
64987;DHT22;67903;52.108;9.358;2023-05-07T03:31:18;10.40;80.70
64987;DHT22;67903;52.108;9.358;2023-05-07T03:34:05;10.40;80.60
64987;DHT22;67903;52.108;9.358;2023-05-07T03:36:52;10.30;80.70
64987;DHT22;67903;52.108;9.358;2023-05-07T03:39:42;10.40;80.40
64987;DHT22;67903;52.108;9.358;2023-05-07T03:42:30;10.30;80.60
64987;DHT22;67903;52.108;9.358;2023-05-07T03:45:17;10.30;80.80
64987;DHT22;67903;52.108;9.358;2023-05-07T03:48:09;10.30;80.80
64987;DHT22;67903;52.108;9.358;2023-05-07T03:50:57;10.40;80.50
64987;DHT22;67903;52.108;9.358;2023-05-07T03:53:49;10.30;80.40
64987;DHT22;67903;52.108;9.358;2023-05-07T03:56:36;10.30;80.50
64987;DHT22;67903;52.108;9.358;2023-05-07T03:59:23;10.20;80.60
64987;DHT22;67903;52.108;9.358;2023-05-07T04:02:10;10.30;80.50
64987;DHT22;67903;52.108;9.358;2023-05-07T04:04:58;10.30;80.40
64987;DHT22;67903;52.108;9.358;2023-05-07T04:07:45;10.30;80.20
64987;DHT22;67903;52.108;9.358;2023-05-07T04:10:35;10.40;80.10
64987;DHT22;67903;52.108;9.358;2023-05-07T04:13:27;10.40;80.00
64987;DHT22;67903;52.108;9.358;2023-05-07T04:16:15;10.40;79.70
64987;DHT22;67903;52.108;9.358;2023-05-07T04:19:02;10.30;79.90
64987;DHT22;67903;52.108;9.358;2023-05-07T04:21:49;10.30;79.80
64987;DHT22;67903;52.108;9.358;2023-05-07T04:24:37;10.40;79.40
64987;DHT22;67903;52.108;9.358;2023-05-07T04:27:24;10.30;79.50
64987;DHT22;67903;52.108;9.358;2023-05-07T04:30:13;10.30;79.60
64987;DHT22;67903;52.108;9.358;2023-05-07T04:33:00;10.30;79.30
64987;DHT22;67903;52.108;9.358;2023-05-07T04:35:50;10.30;79.60
64987;DHT22;67903;52.108;9.358;2023-05-07T04:38:38;10.40;79.10
64987;DHT22;67903;52.108;9.358;2023-05-07T04:41:26;10.40;79.00
64987;DHT22;67903;52.108;9.358;2023-05-07T04:44:13;10.40;78.80
64987;DHT22;67903;52.108;9.358;2023-05-07T04:47:02;10.40;78.70
64987;DHT22;67903;52.108;9.358;2023-05-07T04:49:49;10.40;78.40
64987;DHT22;67903;52.108;9.358;2023-05-07T04:52:36;10.40;78.30
64987;DHT22;67903;52.108;9.358;2023-05-07T04:55:24;10.40;78.20
64987;DHT22;67903;52.108;9.358;2023-05-07T04:58:12;10.40;78.40
64987;DHT22;67903;52.108;9.358;2023-05-07T05:01:00;10.50;78.10
64987;DHT22;67903;52.108;9.358;2023-05-07T05:03:48;10.50;77.90
64987;DHT22;67903;52.108;9.358;2023-05-07T05:06:37;10.60;77.90
64987;DHT22;67903;52.108;9.358;2023-05-07T05:09:25;10.60;77.70
64987;DHT22;67903;52.108;9.358;2023-05-07T05:12:12;10.60;77.50
64987;DHT22;67903;52.108;9.358;2023-05-07T05:14:59;10.60;77.50
64987;DHT22;67903;52.108;9.358;2023-05-07T05:17:47;10.50;77.70
64987;DHT22;67903;52.108;9.358;2023-05-07T05:20:35;10.60;77.70
64987;DHT22;67903;52.108;9.358;2023-05-07T05:23:22;10.60;77.60
64987;DHT22;67903;52.108;9.358;2023-05-07T05:26:10;10.60;77.70
64987;DHT22;67903;52.108;9.358;2023-05-07T05:28:57;10.60;77.80
64987;DHT22;67903;52.108;9.358;2023-05-07T05:31:46;10.60;77.60
64987;DHT22;67903;52.108;9.358;2023-05-07T05:34:33;10.60;77.70
64987;DHT22;67903;52.108;9.358;2023-05-07T05:37:21;10.60;77.80
64987;DHT22;67903;52.108;9.358;2023-05-07T05:40:10;10.70;77.50
64987;DHT22;67903;52.108;9.358;2023-05-07T05:42:58;10.70;77.50
64987;DHT22;67903;52.108;9.358;2023-05-07T05:45:45;10.60;77.70
64987;DHT22;67903;52.108;9.358;2023-05-07T05:48:33;10.50;78.10
64987;DHT22;67903;52.108;9.358;2023-05-07T05:51:21;10.60;78.00
64987;DHT22;67903;52.108;9.358;2023-05-07T05:54:09;10.60;78.00
64987;DHT22;67903;52.108;9.358;2023-05-07T05:56:56;10.70;77.90
64987;DHT22;67903;52.108;9.358;2023-05-07T05:59:45;10.80;77.50
64987;DHT22;67903;52.108;9.358;2023-05-07T06:02:33;10.80;77.60
64987;DHT22;67903;52.108;9.358;2023-05-07T06:05:21;10.80;77.60
64987;DHT22;67903;52.108;9.358;2023-05-07T06:08:12;10.70;77.70
64987;DHT22;67903;52.108;9.358;2023-05-07T06:11:01;10.70;77.60
64987;DHT22;67903;52.108;9.358;2023-05-07T06:13:51;10.80;77.50
64987;DHT22;67903;52.108;9.358;2023-05-07T06:16:38;10.80;77.30
64987;DHT22;67903;52.108;9.358;2023-05-07T06:19:27;10.90;77.20
64987;DHT22;67903;52.108;9.358;2023-05-07T06:22:16;11.00;77.00
64987;DHT22;67903;52.108;9.358;2023-05-07T06:25:05;10.90;77.20
64987;DHT22;67903;52.108;9.358;2023-05-07T06:27:52;10.90;76.90
64987;DHT22;67903;52.108;9.358;2023-05-07T06:30:39;11.00;76.90
64987;DHT22;67903;52.108;9.358;2023-05-07T06:33:27;11.10;76.60
64987;DHT22;67903;52.108;9.358;2023-05-07T06:36:14;11.10;76.50
64987;DHT22;67903;52.108;9.358;2023-05-07T06:39:03;11.10;76.50
64987;DHT22;67903;52.108;9.358;2023-05-07T06:41:50;11.10;76.60
64987;DHT22;67903;52.108;9.358;2023-05-07T06:44:44;11.10;76.70
64987;DHT22;67903;52.108;9.358;2023-05-07T06:47:33;11.00;77.30
64987;DHT22;67903;52.108;9.358;2023-05-07T06:50:21;11.10;76.80
64987;DHT22;67903;52.108;9.358;2023-05-07T06:53:09;11.10;76.80
64987;DHT22;67903;52.108;9.358;2023-05-07T06:55:57;11.10;76.80
64987;DHT22;67903;52.108;9.358;2023-05-07T06:58:44;11.10;77.00
64987;DHT22;67903;52.108;9.358;2023-05-07T07:01:31;11.10;76.90
64987;DHT22;67903;52.108;9.358;2023-05-07T07:04:21;11.30;76.50
64987;DHT22;67903;52.108;9.358;2023-05-07T07:07:17;11.30;76.40
64987;DHT22;67903;52.108;9.358;2023-05-07T07:10:07;11.40;76.00
64987;DHT22;67903;52.108;9.358;2023-05-07T07:12:55;11.50;75.80
64987;DHT22;67903;52.108;9.358;2023-05-07T07:15:43;11.40;75.80
64987;DHT22;67903;52.108;9.358;2023-05-07T07:18:30;11.40;76.20
64987;DHT22;67903;52.108;9.358;2023-05-07T07:21:18;11.50;75.90
64987;DHT22;67903;52.108;9.358;2023-05-07T07:24:05;11.40;75.60
64987;DHT22;67903;52.108;9.358;2023-05-07T07:26:52;11.30;75.90
64987;DHT22;67903;52.108;9.358;2023-05-07T07:29:40;11.30;76.10
64987;DHT22;67903;52.108;9.358;2023-05-07T07:32:27;11.50;75.80
64987;DHT22;67903;52.108;9.358;2023-05-07T07:35:15;11.50;75.50
64987;DHT22;67903;52.108;9.358;2023-05-07T07:38:03;11.50;75.40
64987;DHT22;67903;52.108;9.358;2023-05-07T07:40:51;11.50;75.50
64987;DHT22;67903;52.108;9.358;2023-05-07T07:43:38;11.40;75.70
64987;DHT22;67903;52.108;9.358;2023-05-07T07:46:26;11.40;75.60
64987;DHT22;67903;52.108;9.358;2023-05-07T07:49:14;11.30;75.80
64987;DHT22;67903;52.108;9.358;2023-05-07T07:52:02;11.30;76.10
64987;DHT22;67903;52.108;9.358;2023-05-07T07:54:52;11.50;75.60
64987;DHT22;67903;52.108;9.358;2023-05-07T07:57:41;11.50;75.20
64987;DHT22;67903;52.108;9.358;2023-05-07T08:00:28;11.50;75.10
64987;DHT22;67903;52.108;9.358;2023-05-07T08:03:16;11.50;75.30
64987;DHT22;67903;52.108;9.358;2023-05-07T08:06:08;11.60;75.20
64987;DHT22;67903;52.108;9.358;2023-05-07T08:08:55;11.70;75.10
64987;DHT22;67903;52.108;9.358;2023-05-07T08:11:43;11.50;74.70
64987;DHT22;67903;52.108;9.358;2023-05-07T08:14:30;11.50;75.10
64987;DHT22;67903;52.108;9.358;2023-05-07T08:17:17;11.50;74.90
64987;DHT22;67903;52.108;9.358;2023-05-07T08:20:06;11.70;74.70
64987;DHT22;67903;52.108;9.358;2023-05-07T08:22:54;11.50;74.70
64987;DHT22;67903;52.108;9.358;2023-05-07T08:25:42;11.50;74.90
64987;DHT22;67903;52.108;9.358;2023-05-07T08:28:33;11.50;75.10
64987;DHT22;67903;52.108;9.358;2023-05-07T08:31:20;11.50;75.00
64987;DHT22;67903;52.108;9.358;2023-05-07T08:34:08;11.50;74.80
64987;DHT22;67903;52.108;9.358;2023-05-07T08:36:59;11.70;74.50
64987;DHT22;67903;52.108;9.358;2023-05-07T08:39:47;11.80;74.10
64987;DHT22;67903;52.108;9.358;2023-05-07T08:42:40;11.90;73.80
64987;DHT22;67903;52.108;9.358;2023-05-07T08:45:30;12.10;73.00
64987;DHT22;67903;52.108;9.358;2023-05-07T08:48:21;11.90;73.00
64987;DHT22;67903;52.108;9.358;2023-05-07T08:51:18;11.90;73.20
64987;DHT22;67903;52.108;9.358;2023-05-07T08:54:06;12.10;72.80
64987;DHT22;67903;52.108;9.358;2023-05-07T08:56:54;12.20;72.50
64987;DHT22;67903;52.108;9.358;2023-05-07T08:59:42;12.20;72.50
64987;DHT22;67903;52.108;9.358;2023-05-07T09:02:30;12.40;72.50
64987;DHT22;67903;52.108;9.358;2023-05-07T09:05:17;12.40;71.90
64987;DHT22;67903;52.108;9.358;2023-05-07T09:08:06;12.50;71.40
64987;DHT22;67903;52.108;9.358;2023-05-07T09:10:55;12.40;71.70
64987;DHT22;67903;52.108;9.358;2023-05-07T09:13:42;12.60;71.50
64987;DHT22;67903;52.108;9.358;2023-05-07T09:16:30;12.90;70.80
64987;DHT22;67903;52.108;9.358;2023-05-07T09:19:23;12.90;70.50
64987;DHT22;67903;52.108;9.358;2023-05-07T09:22:11;12.90;70.40
64987;DHT22;67903;52.108;9.358;2023-05-07T09:25:14;12.90;70.50
64987;DHT22;67903;52.108;9.358;2023-05-07T09:28:03;13.00;70.30
64987;DHT22;67903;52.108;9.358;2023-05-07T09:30:50;12.90;70.10
64987;DHT22;67903;52.108;9.358;2023-05-07T09:33:39;13.10;70.00
64987;DHT22;67903;52.108;9.358;2023-05-07T09:36:28;12.90;70.10
64987;DHT22;67903;52.108;9.358;2023-05-07T09:39:16;12.90;70.40
64987;DHT22;67903;52.108;9.358;2023-05-07T09:42:04;13.00;70.10
64987;DHT22;67903;52.108;9.358;2023-05-07T09:44:54;13.10;69.40
64987;DHT22;67903;52.108;9.358;2023-05-07T09:47:46;13.30;69.00
64987;DHT22;67903;52.108;9.358;2023-05-07T09:50:48;13.40;68.90
64987;DHT22;67903;52.108;9.358;2023-05-07T09:53:39;13.40;68.70
64987;DHT22;67903;52.108;9.358;2023-05-07T09:56:32;13.60;68.50
64987;DHT22;67903;52.108;9.358;2023-05-07T09:59:20;13.80;68.00
64987;DHT22;67903;52.108;9.358;2023-05-07T10:02:09;14.00;67.10
64987;DHT22;67903;52.108;9.358;2023-05-07T10:05:06;14.00;66.80
64987;DHT22;67903;52.108;9.358;2023-05-07T10:07:54;14.00;67.00
64987;DHT22;67903;52.108;9.358;2023-05-07T10:10:42;14.00;66.80
64987;DHT22;67903;52.108;9.358;2023-05-07T10:13:34;14.30;66.00
64987;DHT22;67903;52.108;9.358;2023-05-07T10:16:23;14.30;65.80
64987;DHT22;67903;52.108;9.358;2023-05-07T10:19:11;14.20;66.10
64987;DHT22;67903;52.108;9.358;2023-05-07T10:22:05;14.30;66.20
64987;DHT22;67903;52.108;9.358;2023-05-07T10:24:59;14.80;64.80
64987;DHT22;67903;52.108;9.358;2023-05-07T10:27:50;14.70;64.90
64987;DHT22;67903;52.108;9.358;2023-05-07T10:31:15;14.60;64.40
64987;DHT22;67903;52.108;9.358;2023-05-07T10:34:12;14.70;64.50
64987;DHT22;67903;52.108;9.358;2023-05-07T10:37:01;15.20;63.70
64987;DHT22;67903;52.108;9.358;2023-05-07T10:39:49;15.40;62.90
64987;DHT22;67903;52.108;9.358;2023-05-07T10:42:38;15.10;63.30
64987;DHT22;67903;52.108;9.358;2023-05-07T10:45:27;15.30;63.10
64987;DHT22;67903;52.108;9.358;2023-05-07T10:48:16;15.30;63.00
64987;DHT22;67903;52.108;9.358;2023-05-07T10:51:21;15.30;63.00
64987;DHT22;67903;52.108;9.358;2023-05-07T10:54:20;15.10;63.20
64987;DHT22;67903;52.108;9.358;2023-05-07T10:57:35;15.20;63.00
64987;DHT22;67903;52.108;9.358;2023-05-07T11:03:26;15.40;62.60
64987;DHT22;67903;52.108;9.358;2023-05-07T11:06:19;15.30;63.20
64987;DHT22;67903;52.108;9.358;2023-05-07T11:09:21;15.60;62.70
64987;DHT22;67903;52.108;9.358;2023-05-07T11:15:37;15.70;62.30
64987;DHT22;67903;52.108;9.358;2023-05-07T11:18:56;15.80;62.10
64987;DHT22;67903;52.108;9.358;2023-05-07T11:21:50;15.80;61.70
64987;DHT22;67903;52.108;9.358;2023-05-07T11:24:55;15.70;62.00
64987;DHT22;67903;52.108;9.358;2023-05-07T11:27:43;15.80;62.20
64987;DHT22;67903;52.108;9.358;2023-05-07T11:30:31;16.00;61.30
64987;DHT22;67903;52.108;9.358;2023-05-07T11:33:19;15.90;61.60
64987;DHT22;67903;52.108;9.358;2023-05-07T11:36:08;16.10;61.20
64987;DHT22;67903;52.108;9.358;2023-05-07T11:39:02;16.30;60.90
64987;DHT22;67903;52.108;9.358;2023-05-07T11:41:49;16.80;60.20
64987;DHT22;67903;52.108;9.358;2023-05-07T11:44:43;16.80;59.30
64987;DHT22;67903;52.108;9.358;2023-05-07T11:47:31;16.90;59.80
64987;DHT22;67903;52.108;9.358;2023-05-07T11:50:18;16.70;59.70
64987;DHT22;67903;52.108;9.358;2023-05-07T11:53:08;16.60;59.80
64987;DHT22;67903;52.108;9.358;2023-05-07T11:55:55;16.70;59.60
64987;DHT22;67903;52.108;9.358;2023-05-07T11:58:44;16.70;59.20
64987;DHT22;67903;52.108;9.358;2023-05-07T12:01:31;16.90;59.10
64987;DHT22;67903;52.108;9.358;2023-05-07T12:04:21;16.80;59.30
64987;DHT22;67903;52.108;9.358;2023-05-07T12:07:13;17.20;58.70
64987;DHT22;67903;52.108;9.358;2023-05-07T12:10:06;17.50;58.20
64987;DHT22;67903;52.108;9.358;2023-05-07T12:12:54;17.80;57.40
64987;DHT22;67903;52.108;9.358;2023-05-07T12:15:42;17.50;57.70
64987;DHT22;67903;52.108;9.358;2023-05-07T12:18:30;17.40;57.80
64987;DHT22;67903;52.108;9.358;2023-05-07T12:21:17;17.80;57.50
64987;DHT22;67903;52.108;9.358;2023-05-07T12:24:05;17.60;57.50
64987;DHT22;67903;52.108;9.358;2023-05-07T12:26:52;17.50;57.60
64987;DHT22;67903;52.108;9.358;2023-05-07T12:29:40;17.50;57.80
64987;DHT22;67903;52.108;9.358;2023-05-07T12:32:31;17.50;57.80
64987;DHT22;67903;52.108;9.358;2023-05-07T12:35:31;17.80;57.40
64987;DHT22;67903;52.108;9.358;2023-05-07T12:38:18;17.80;56.80
64987;DHT22;67903;52.108;9.358;2023-05-07T12:41:08;17.40;57.90
64987;DHT22;67903;52.108;9.358;2023-05-07T12:43:56;17.60;57.50
64987;DHT22;67903;52.108;9.358;2023-05-07T12:46:44;17.40;58.10
64987;DHT22;67903;52.108;9.358;2023-05-07T12:49:34;17.50;58.10
64987;DHT22;67903;52.108;9.358;2023-05-07T12:52:24;17.60;57.80
64987;DHT22;67903;52.108;9.358;2023-05-07T12:55:14;17.60;57.50
64987;DHT22;67903;52.108;9.358;2023-05-07T12:58:02;17.90;56.90
64987;DHT22;67903;52.108;9.358;2023-05-07T13:00:50;18.00;56.80
64987;DHT22;67903;52.108;9.358;2023-05-07T13:03:38;18.00;57.20
64987;DHT22;67903;52.108;9.358;2023-05-07T13:06:26;17.80;57.50
64987;DHT22;67903;52.108;9.358;2023-05-07T13:09:13;17.60;57.90
64987;DHT22;67903;52.108;9.358;2023-05-07T13:12:00;17.50;57.80
64987;DHT22;67903;52.108;9.358;2023-05-07T13:14:48;17.60;57.50
64987;DHT22;67903;52.108;9.358;2023-05-07T13:17:35;17.40;57.70
64987;DHT22;67903;52.108;9.358;2023-05-07T13:20:22;17.20;58.50
64987;DHT22;67903;52.108;9.358;2023-05-07T13:23:09;17.10;58.70
64987;DHT22;67903;52.108;9.358;2023-05-07T13:25:59;17.40;58.30
64987;DHT22;67903;52.108;9.358;2023-05-07T13:28:54;17.30;58.40
64987;DHT22;67903;52.108;9.358;2023-05-07T13:31:41;17.40;58.30
64987;DHT22;67903;52.108;9.358;2023-05-07T13:34:30;17.00;58.90
64987;DHT22;67903;52.108;9.358;2023-05-07T13:37:17;17.00;58.90
64987;DHT22;67903;52.108;9.358;2023-05-07T13:40:05;17.00;58.50
64987;DHT22;67903;52.108;9.358;2023-05-07T13:42:53;17.00;58.80
64987;DHT22;67903;52.108;9.358;2023-05-07T13:45:40;17.30;57.80
64987;DHT22;67903;52.108;9.358;2023-05-07T13:48:27;17.50;57.90
64987;DHT22;67903;52.108;9.358;2023-05-07T13:51:15;17.60;57.20
64987;DHT22;67903;52.108;9.358;2023-05-07T13:54:02;17.70;57.00
64987;DHT22;67903;52.108;9.358;2023-05-07T13:56:49;18.00;56.70
64987;DHT22;67903;52.108;9.358;2023-05-07T13:59:37;18.10;56.60
64987;DHT22;67903;52.108;9.358;2023-05-07T14:02:24;18.20;56.30
64987;DHT22;67903;52.108;9.358;2023-05-07T14:05:11;18.30;56.10
64987;DHT22;67903;52.108;9.358;2023-05-07T14:08:00;18.50;55.90
64987;DHT22;67903;52.108;9.358;2023-05-07T14:10:47;18.80;55.00
64987;DHT22;67903;52.108;9.358;2023-05-07T14:13:34;19.50;53.90
64987;DHT22;67903;52.108;9.358;2023-05-07T14:16:21;20.10;52.80
64987;DHT22;67903;52.108;9.358;2023-05-07T14:19:08;20.60;50.90
64987;DHT22;67903;52.108;9.358;2023-05-07T14:21:56;21.00;50.30
64987;DHT22;67903;52.108;9.358;2023-05-07T14:24:45;21.10;50.10
64987;DHT22;67903;52.108;9.358;2023-05-07T14:27:39;21.90;48.70
64987;DHT22;67903;52.108;9.358;2023-05-07T14:30:26;21.90;48.60
64987;DHT22;67903;52.108;9.358;2023-05-07T14:33:13;21.90;48.60
64987;DHT22;67903;52.108;9.358;2023-05-07T14:36:00;22.80;47.20
64987;DHT22;67903;52.108;9.358;2023-05-07T14:38:47;21.90;48.40
64987;DHT22;67903;52.108;9.358;2023-05-07T14:41:34;21.70;48.60
64987;DHT22;67903;52.108;9.358;2023-05-07T14:44:22;21.40;49.20
64987;DHT22;67903;52.108;9.358;2023-05-07T14:47:10;21.40;48.90
64987;DHT22;67903;52.108;9.358;2023-05-07T14:49:57;21.40;49.20
64987;DHT22;67903;52.108;9.358;2023-05-07T14:52:45;21.70;48.80
64987;DHT22;67903;52.108;9.358;2023-05-07T14:55:32;21.70;48.40
64987;DHT22;67903;52.108;9.358;2023-05-07T14:58:21;21.70;48.70
64987;DHT22;67903;52.108;9.358;2023-05-07T15:01:08;22.20;47.80
64987;DHT22;67903;52.108;9.358;2023-05-07T15:03:55;22.50;47.20
64987;DHT22;67903;52.108;9.358;2023-05-07T15:06:42;22.70;47.10
64987;DHT22;67903;52.108;9.358;2023-05-07T15:09:29;23.00;46.30
64987;DHT22;67903;52.108;9.358;2023-05-07T15:12:16;22.50;46.90
64987;DHT22;67903;52.108;9.358;2023-05-07T15:15:04;21.70;48.10
64987;DHT22;67903;52.108;9.358;2023-05-07T15:17:51;21.70;48.20
64987;DHT22;67903;52.108;9.358;2023-05-07T15:20:38;22.30;46.90
64987;DHT22;67903;52.108;9.358;2023-05-07T15:23:26;21.40;48.30
64987;DHT22;67903;52.108;9.358;2023-05-07T15:26:13;21.70;48.20
64987;DHT22;67903;52.108;9.358;2023-05-07T15:29:00;21.60;48.50
64987;DHT22;67903;52.108;9.358;2023-05-07T15:31:50;21.00;48.90
64987;DHT22;67903;52.108;9.358;2023-05-07T15:34:37;20.50;50.00
64987;DHT22;67903;52.108;9.358;2023-05-07T15:37:24;20.50;50.20
64987;DHT22;67903;52.108;9.358;2023-05-07T15:40:12;20.10;50.80
64987;DHT22;67903;52.108;9.358;2023-05-07T15:42:59;20.00;51.20
64987;DHT22;67903;52.108;9.358;2023-05-07T15:45:47;19.90;51.10
64987;DHT22;67903;52.108;9.358;2023-05-07T15:48:34;19.50;51.80
64987;DHT22;67903;52.108;9.358;2023-05-07T15:51:22;19.20;52.70
64987;DHT22;67903;52.108;9.358;2023-05-07T15:54:09;18.80;53.20
64987;DHT22;67903;52.108;9.358;2023-05-07T15:56:56;18.40;53.90
64987;DHT22;67903;52.108;9.358;2023-05-07T15:59:43;18.20;54.50
64987;DHT22;67903;52.108;9.358;2023-05-07T16:02:30;18.20;54.70
64987;DHT22;67903;52.108;9.358;2023-05-07T16:05:18;18.30;54.20
64987;DHT22;67903;52.108;9.358;2023-05-07T16:08:05;17.90;55.00
64987;DHT22;67903;52.108;9.358;2023-05-07T16:10:52;17.70;55.20
64987;DHT22;67903;52.108;9.358;2023-05-07T16:13:41;17.80;55.20
64987;DHT22;67903;52.108;9.358;2023-05-07T16:16:32;17.50;55.60
64987;DHT22;67903;52.108;9.358;2023-05-07T16:19:19;17.60;55.90
64987;DHT22;67903;52.108;9.358;2023-05-07T16:22:06;17.40;55.80
64987;DHT22;67903;52.108;9.358;2023-05-07T16:24:53;17.20;56.20
64987;DHT22;67903;52.108;9.358;2023-05-07T16:27:41;17.00;56.60
64987;DHT22;67903;52.108;9.358;2023-05-07T16:30:28;17.40;56.30
64987;DHT22;67903;52.108;9.358;2023-05-07T16:33:15;17.50;55.90
64987;DHT22;67903;52.108;9.358;2023-05-07T16:36:02;17.80;55.90
64987;DHT22;67903;52.108;9.358;2023-05-07T16:38:49;17.50;55.80
64987;DHT22;67903;52.108;9.358;2023-05-07T16:41:37;17.60;55.70
64987;DHT22;67903;52.108;9.358;2023-05-07T16:44:24;17.50;55.70
64987;DHT22;67903;52.108;9.358;2023-05-07T16:47:11;17.30;56.10
64987;DHT22;67903;52.108;9.358;2023-05-07T16:49:58;17.20;56.20
64987;DHT22;67903;52.108;9.358;2023-05-07T16:52:47;17.20;56.40
64987;DHT22;67903;52.108;9.358;2023-05-07T16:55:35;16.70;57.10
64987;DHT22;67903;52.108;9.358;2023-05-07T16:58:24;16.70;57.10
64987;DHT22;67903;52.108;9.358;2023-05-07T17:01:13;16.50;57.30
64987;DHT22;67903;52.108;9.358;2023-05-07T17:04:02;16.30;57.60
64987;DHT22;67903;52.108;9.358;2023-05-07T17:06:49;16.10;58.10
64987;DHT22;67903;52.108;9.358;2023-05-07T17:09:37;16.00;57.90
64987;DHT22;67903;52.108;9.358;2023-05-07T17:12:24;15.80;58.40
64987;DHT22;67903;52.108;9.358;2023-05-07T17:15:12;15.60;59.00
64987;DHT22;67903;52.108;9.358;2023-05-07T17:17:59;15.50;59.20
64987;DHT22;67903;52.108;9.358;2023-05-07T17:20:46;15.50;58.90
64987;DHT22;67903;52.108;9.358;2023-05-07T17:23:33;15.30;59.30
64987;DHT22;67903;52.108;9.358;2023-05-07T17:26:20;15.40;59.40
64987;DHT22;67903;52.108;9.358;2023-05-07T17:29:08;15.40;59.20
64987;DHT22;67903;52.108;9.358;2023-05-07T17:31:55;15.30;59.50
64987;DHT22;67903;52.108;9.358;2023-05-07T17:34:42;15.20;59.50
64987;DHT22;67903;52.108;9.358;2023-05-07T17:37:29;15.00;59.60
64987;DHT22;67903;52.108;9.358;2023-05-07T17:40:18;15.10;59.60
64987;DHT22;67903;52.108;9.358;2023-05-07T17:43:05;15.10;59.50
64987;DHT22;67903;52.108;9.358;2023-05-07T17:45:52;14.90;59.70
64987;DHT22;67903;52.108;9.358;2023-05-07T17:48:39;14.70;60.20
64987;DHT22;67903;52.108;9.358;2023-05-07T17:51:26;14.60;60.20